Time;durP1;ratioP1;P1;durP2;ratioP2;P2;SDS_P1;SDS_P2;PMS_P1;PMS_P2;Temp;Humidity;BMP_temperature;BMP_pressure;BME280_temperature;BME280_humidity;BME280_pressure;Samples;Min_cycle;Max_cycle;Signal;HPM_P1;HPM_P2
2023/09/20 00:00:40;;;;;;;3.97;2.03;;;14.70;1.00;;;;;;7389574;19;20018;-71
2023/09/20 00:03:12;;;;;;;9.43;2.20;;;14.70;1.00;;;;;;7376048;19;20019;-69
2023/09/20 00:05:47;;;;;;;3.50;2.10;;;14.80;1.00;;;;;;7368889;19;20006;-70
2023/09/20 00:08:18;;;;;;;2.75;1.88;;;14.80;1.00;;;;;;7368705;19;20014;-70
2023/09/20 00:10:48;;;;;;;4.35;1.65;;;14.80;1.00;;;;;;7370349;19;20031;-70
2023/09/20 00:13:18;;;;;;;3.72;1.85;;;14.90;1.00;;;;;;7368924;19;20464;-69
2023/09/20 00:15:48;;;;;;;3.33;1.83;;;14.80;1.00;;;;;;7367536;19;20803;-70
2023/09/20 00:18:24;;;;;;;2.60;1.95;;;14.80;1.00;;;;;;7368920;19;20018;-69
2023/09/20 00:20:53;;;;;;;3.63;1.70;;;14.70;1.00;;;;;;7367036;19;20101;-69
2023/09/20 00:23:23;;;;;;;4.57;2.13;;;14.70;1.00;;;;;;7367784;19;20027;-69
2023/09/20 00:25:53;;;;;;;4.70;1.88;;;14.80;1.00;;;;;;7369718;19;20529;-70
2023/09/20 00:28:26;;;;;;;2.92;1.92;;;14.80;1.00;;;;;;7368011;19;20043;-68
2023/09/20 00:30:57;;;;;;;5.10;2.30;;;14.90;1.00;;;;;;7366942;19;20507;-70
2023/09/20 00:33:30;;;;;;;4.32;2.30;;;14.90;1.00;;;;;;7367535;19;20078;-70
2023/09/20 00:35:59;;;;;;;5.78;2.28;;;15.00;1.00;;;;;;7369533;19;20018;-71
2023/09/20 00:38:29;;;;;;;5.15;2.40;;;14.90;1.00;;;;;;7367204;19;20770;-70
2023/09/20 00:40:59;;;;;;;2.97;1.88;;;15.00;1.00;;;;;;7365818;19;20010;-69
2023/09/20 00:43:30;;;;;;;5.93;2.22;;;15.00;1.00;;;;;;7367260;19;20017;-70
2023/09/20 00:46:02;;;;;;;3.08;1.70;;;14.90;1.00;;;;;;7368984;19;20035;-70
2023/09/20 00:48:35;;;;;;;3.20;2.05;;;14.90;1.00;;;;;;7367353;19;20013;-70
2023/09/20 00:51:05;;;;;;;3.05;1.90;;;15.00;1.00;;;;;;7370631;19;20019;-69
2023/09/20 00:53:37;;;;;;;3.80;2.08;;;14.90;1.00;;;;;;7375452;19;20086;-68
2023/09/20 00:56:09;;;;;;;7.53;2.35;;;14.90;1.00;;;;;;7375092;19;20077;-69
2023/09/20 00:58:41;;;;;;;4.43;2.03;;;14.90;1.00;;;;;;7374272;19;20018;-70
2023/09/20 01:01:12;;;;;;;3.88;2.05;;;14.90;1.00;;;;;;7374485;19;20511;-70
2023/09/20 01:03:47;;;;;;;3.20;2.00;;;15.00;1.00;;;;;;7375495;19;20006;-70
2023/09/20 01:06:19;;;;;;;3.55;2.08;;;14.90;1.00;;;;;;7374492;19;20491;-69
2023/09/20 01:08:49;;;;;;;3.67;2.65;;;14.90;1.00;;;;;;7372469;19;20499;-70
2023/09/20 01:11:19;;;;;;;4.97;2.85;;;14.90;1.00;;;;;;7374467;19;20031;-70
2023/09/20 01:13:50;;;;;;;4.32;2.38;;;15.00;1.00;;;;;;7374999;19;20134;-70
2023/09/20 01:16:20;;;;;;;3.85;2.08;;;15.00;1.00;;;;;;7375775;19;20011;-69
2023/09/20 01:18:53;;;;;;;3.58;2.05;;;14.90;1.00;;;;;;7372295;19;20851;-69
2023/09/20 01:21:23;;;;;;;5.20;2.30;;;14.90;1.00;;;;;;7372393;19;20027;-69
2023/09/20 01:23:56;;;;;;;6.53;1.80;;;14.80;1.00;;;;;;7373313;19;20459;-70
2023/09/20 01:26:27;;;;;;;3.10;1.67;;;14.80;1.00;;;;;;7373356;19;20013;-68
2023/09/20 01:28:58;;;;;;;4.35;2.05;;;14.80;1.00;;;;;;7371139;19;20010;-70
2023/09/20 01:31:28;;;;;;;3.58;2.03;;;14.70;1.00;;;;;;7373359;19;20018;-70
2023/09/20 01:33:58;;;;;;;4.03;2.40;;;14.70;1.00;;;;;;7375352;19;20017;-70
2023/09/20 01:36:28;;;;;;;5.57;3.03;;;14.70;1.00;;;;;;7373741;19;20107;-70
2023/09/20 01:39:00;;;;;;;4.13;2.95;;;14.80;1.00;;;;;;7371340;19;20031;-70
2023/09/20 01:41:31;;;;;;;5.45;2.40;;;14.90;1.00;;;;;;7373307;19;20015;-69
2023/09/20 01:44:02;;;;;;;3.40;2.13;;;14.80;1.00;;;;;;7373557;19;20652;-69
2023/09/20 01:46:33;;;;;;;2.35;2.00;;;14.80;1.00;;;;;;7370891;19;20018;-69
2023/09/20 01:49:05;;;;;;;3.15;1.88;;;14.80;1.00;;;;;;7371427;19;20014;-69
2023/09/20 01:51:35;;;;;;;3.55;1.98;;;14.80;1.00;;;;;;7373886;19;20006;-69
2023/09/20 01:54:08;;;;;;;4.32;1.90;;;14.70;1.00;;;;;;7372539;19;20046;-69
2023/09/20 01:56:38;;;;;;;5.20;2.00;;;14.70;1.00;;;;;;7371600;19;20014;-69
2023/09/20 01:59:09;;;;;;;3.03;1.88;;;14.70;1.00;;;;;;7370650;19;20014;-69
2023/09/20 02:01:39;;;;;;;8.05;2.20;;;14.60;1.00;;;;;;7372457;19;20014;-69
2023/09/20 02:04:09;;;;;;;4.30;2.75;;;14.60;1.00;;;;;;7373223;19;20022;-69
2023/09/20 02:06:39;;;;;;;3.25;2.63;;;14.60;1.00;;;;;;7374240;19;20011;-69
2023/09/20 02:09:12;;;;;;;2.67;2.08;;;14.70;1.00;;;;;;7370515;19;20178;-69
2023/09/20 02:11:42;;;;;;;4.60;2.17;;;14.70;1.00;;;;;;7373787;19;20442;-69
2023/09/20 02:14:12;;;;;;;3.78;2.15;;;14.60;1.00;;;;;;7372106;19;20013;-70
2023/09/20 02:16:42;;;;;;;4.22;1.90;;;14.60;1.00;;;;;;7374413;19;20014;-70
2023/09/20 02:19:13;;;;;;;2.95;1.80;;;14.60;1.00;;;;;;7369629;19;20007;-70
2023/09/20 02:21:44;;;;;;;4.68;2.10;;;14.60;1.00;;;;;;7374055;19;20031;-69
2023/09/20 02:24:17;;;;;;;4.60;1.90;;;14.60;1.00;;;;;;7370866;19;20052;-68
2023/09/20 02:26:48;;;;;;;4.45;2.00;;;14.60;1.00;;;;;;7373872;19;20466;-69
2023/09/20 02:29:22;;;;;;;4.03;1.88;;;14.60;1.00;;;;;;7370250;19;20018;-69
2023/09/20 02:31:54;;;;;;;6.03;1.63;;;14.50;1.00;;;;;;7373327;19;20003;-68
2023/09/20 02:34:24;;;;;;;2.97;1.83;;;14.50;1.00;;;;;;7373972;19;20475;-68
2023/09/20 02:36:56;;;;;;;3.17;1.90;;;14.50;1.00;;;;;;7373807;19;20018;-68
2023/09/20 02:39:29;;;;;;;4.03;2.40;;;14.50;1.00;;;;;;7386373;19;20035;-68
2023/09/20 02:41:59;;;;;;;4.05;2.33;;;14.50;1.00;;;;;;7385144;19;20007;-70
2023/09/20 02:44:30;;;;;;;5.13;2.15;;;14.40;1.00;;;;;;7387644;19;20023;-69
2023/09/20 02:47:00;;;;;;;4.43;2.33;;;14.40;1.00;;;;;;7389495;19;20035;-70
2023/09/20 02:49:32;;;;;;;4.63;2.13;;;14.40;1.00;;;;;;7389964;19;20021;-69
2023/09/20 02:52:02;;;;;;;3.65;2.60;;;14.40;1.00;;;;;;7387165;19;20010;-69
2023/09/20 02:54:35;;;;;;;6.20;2.78;;;14.40;1.00;;;;;;7389675;19;20077;-69
2023/09/20 02:57:07;;;;;;;8.35;3.15;;;14.40;1.00;;;;;;7387021;19;20153;-69
2023/09/20 02:59:38;;;;;;;5.18;2.97;;;14.50;1.00;;;;;;7390788;19;20748;-69
2023/09/20 03:02:08;;;;;;;7.55;3.50;;;14.40;1.00;;;;;;7377650;19;20473;-69
2023/09/20 03:04:39;;;;;;;4.97;2.95;;;14.50;1.00;;;;;;7374883;19;20010;-69
2023/09/20 03:07:09;;;;;;;5.28;2.83;;;14.50;1.00;;;;;;7371961;19;20010;-68
2023/09/20 03:09:43;;;;;;;6.00;2.65;;;14.50;1.00;;;;;;7372486;19;20009;-69
2023/09/20 03:12:14;;;;;;;5.40;3.10;;;14.50;1.00;;;;;;7375996;19;20664;-69
2023/09/20 03:14:45;;;;;;;6.43;3.33;;;14.50;1.00;;;;;;7383511;19;20006;-69
2023/09/20 03:17:15;;;;;;;5.22;2.88;;;14.50;1.00;;;;;;7388535;19;20015;-69
2023/09/20 03:19:46;;;;;;;6.60;3.53;;;14.50;1.00;;;;;;7376037;19;20025;-68
2023/09/20 03:22:17;;;;;;;4.97;2.80;;;14.50;1.00;;;;;;7368193;19;20010;-70
2023/09/20 03:24:51;;;;;;;4.63;2.63;;;14.50;1.00;;;;;;7372324;19;20014;-68
2023/09/20 03:27:23;;;;;;;3.95;2.70;;;14.40;1.00;;;;;;7370386;19;20020;-69
2023/09/20 03:29:55;;;;;;;7.18;3.40;;;14.40;1.00;;;;;;7381824;19;20010;-69
2023/09/20 03:32:25;;;;;;;5.63;3.20;;;14.40;1.00;;;;;;7388522;19;20013;-70
2023/09/20 03:34:56;;;;;;;5.70;3.30;;;14.40;1.00;;;;;;7390683;19;20010;-70
2023/09/20 03:37:27;;;;;;;4.53;3.05;;;14.40;1.00;;;;;;7388028;19;20006;-69
2023/09/20 03:39:59;;;;;;;6.82;2.85;;;14.40;1.00;;;;;;7390936;19;20078;-69
2023/09/20 03:42:29;;;;;;;8.32;3.58;;;14.30;1.00;;;;;;7388676;19;20007;-69
2023/09/20 03:44:59;;;;;;;6.20;3.30;;;14.40;1.00;;;;;;7389681;19;20070;-69
2023/09/20 03:47:30;;;;;;;8.90;3.67;;;14.30;1.00;;;;;;7388378;19;20018;-68
2023/09/20 03:50:00;;;;;;;6.20;3.67;;;14.30;1.00;;;;;;7389053;19;20018;-69
2023/09/20 03:52:30;;;;;;;6.82;4.68;;;14.30;1.00;;;;;;7387602;19;20022;-69
2023/09/20 03:55:03;;;;;;;6.20;3.50;;;14.30;1.00;;;;;;7389387;19;20505;-68
2023/09/20 03:57:37;;;;;;;6.85;3.28;;;14.30;1.00;;;;;;7386989;19;20203;-69
2023/09/20 04:00:11;;;;;;;6.45;3.47;;;14.30;1.00;;;;;;7390260;19;20086;-69
2023/09/20 04:02:41;;;;;;;4.70;2.88;;;14.30;1.00;;;;;;7388553;19;20040;-70
2023/09/20 04:05:13;;;;;;;5.65;3.05;;;14.20;1.00;;;;;;7390097;19;20006;-69
2023/09/20 04:07:52;;;;;;;4.60;3.17;;;14.10;1.00;;;;;;7388932;19;20408;-69
2023/09/20 04:10:27;;;;;;;4.47;3.20;;;14.00;1.00;;;;;;7389566;19;20466;-69
2023/09/20 04:12:57;;;;;;;5.13;3.22;;;14.00;1.00;;;;;;7388317;19;20018;-69
2023/09/20 04:15:29;;;;;;;6.43;3.42;;;14.00;1.00;;;;;;7389721;19;20477;-70
2023/09/20 04:18:00;;;;;;;4.32;3.42;;;14.00;1.00;;;;;;7388483;19;20014;-69
2023/09/20 04:20:31;;;;;;;4.00;3.30;;;14.10;1.00;;;;;;7389298;19;20114;-68
2023/09/20 04:23:02;;;;;;;5.97;3.80;;;14.10;1.00;;;;;;7386956;19;20030;-69
2023/09/20 04:25:35;;;;;;;4.97;3.28;;;14.10;1.00;;;;;;7393309;19;20007;-69
2023/09/20 04:28:05;;;;;;;5.45;3.50;;;14.10;1.00;;;;;;7395439;19;20018;-69
2023/09/20 04:30:36;;;;;;;8.82;3.53;;;14.20;1.00;;;;;;7395395;19;20074;-69
2023/09/20 04:33:06;;;;;;;6.20;3.28;;;14.20;1.00;;;;;;7395654;19;20032;-69
2023/09/20 04:35:37;;;;;;;5.95;3.47;;;14.10;1.00;;;;;;7395418;19;20014;-68
2023/09/20 04:38:07;;;;;;;5.63;3.30;;;14.10;1.00;;;;;;7395174;19;20022;-69
2023/09/20 04:40:39;;;;;;;6.15;3.40;;;14.10;1.00;;;;;;7393951;19;20042;-69
2023/09/20 04:43:10;;;;;;;4.78;3.60;;;14.10;1.00;;;;;;7392599;19;20014;-69
2023/09/20 04:45:40;;;;;;;5.63;3.65;;;14.10;1.00;;;;;;7394049;19;20081;-69
2023/09/20 04:48:10;;;;;;;11.40;6.45;;;14.10;1.00;;;;;;7394269;19;20006;-68
2023/09/20 04:50:40;;;;;;;20.38;11.68;;;14.10;1.00;;;;;;7395577;19;20014;-69
2023/09/20 04:53:10;;;;;;;18.52;10.13;;;14.10;1.00;;;;;;7394001;19;20021;-69
2023/09/20 04:55:43;;;;;;;12.90;7.10;;;14.10;1.00;;;;;;7395251;19;20015;-69
2023/09/20 04:58:13;;;;;;;12.32;5.72;;;14.10;1.00;;;;;;7394035;19;20549;-69
2023/09/20 05:00:44;;;;;;;9.38;5.13;;;14.10;1.00;;;;;;7395804;19;20017;-70
2023/09/20 05:03:15;;;;;;;6.45;4.40;;;14.10;1.00;;;;;;7392385;19;20344;-70
2023/09/20 05:05:47;;;;;;;8.25;4.07;;;14.10;1.00;;;;;;7395669;19;20010;-69
2023/09/20 05:08:21;;;;;;;5.75;3.83;;;14.00;1.00;;;;;;7393059;19;20772;-68
2023/09/20 05:10:55;;;;;;;6.20;3.83;;;14.10;1.00;;;;;;7392891;19;20640;-69
2023/09/20 05:13:25;;;;;;;9.80;3.97;;;14.10;1.00;;;;;;7394411;19;20014;-69
2023/09/20 05:15:55;;;;;;;6.10;4.18;;;14.10;1.00;;;;;;7394967;19;20414;-69
2023/09/20 05:18:28;;;;;;;6.80;4.38;;;14.20;1.00;;;;;;7393412;19;20027;-69
2023/09/20 05:21:02;;;;;;;4.93;3.47;;;14.30;1.00;;;;;;7393488;19;20022;-69
2023/09/20 05:23:32;;;;;;;8.18;3.78;;;14.30;1.00;;;;;;7393843;19;20055;-68
2023/09/20 05:26:05;;;;;;;5.88;3.97;;;14.40;1.00;;;;;;7394523;19;20013;-69
2023/09/20 05:28:36;;;;;;;6.82;3.83;;;14.30;1.00;;;;;;7393007;19;20006;-68
2023/09/20 05:31:06;;;;;;;6.45;3.47;;;14.40;1.00;;;;;;7392995;19;20015;-69
2023/09/20 05:33:36;;;;;;;4.88;3.33;;;14.50;1.00;;;;;;7393427;19;20080;-69
2023/09/20 05:36:06;;;;;;;5.90;3.50;;;14.50;1.00;;;;;;7390407;19;20014;-69
2023/09/20 05:38:36;;;;;;;6.68;3.88;;;14.60;1.00;;;;;;7391571;19;20545;-70
2023/09/20 05:41:10;;;;;;;4.97;3.58;;;14.60;1.00;;;;;;7392708;19;20014;-70
2023/09/20 05:43:42;;;;;;;;;;;14.60;1.00;;;;;;7394378;19;20018;-68
2023/09/20 05:46:13;;;;;;;8.23;4.35;;;14.70;1.00;;;;;;7392185;19;20027;-67
2023/09/20 05:48:44;;;;;;;5.93;3.42;;;14.70;1.00;;;;;;7392033;19;20027;-70
2023/09/20 05:51:18;;;;;;;6.95;3.88;;;14.70;1.00;;;;;;7391706;19;20071;-68
2023/09/20 05:53:48;;;;;;;8.73;3.70;;;14.80;1.00;;;;;;7393831;19;20051;-69
2023/09/20 05:56:24;;;;;;;4.95;3.97;;;14.70;1.00;;;;;;7391918;19;20019;-69
2023/09/20 05:58:55;;;;;;;6.63;3.60;;;14.80;1.00;;;;;;7391853;19;20018;-69
2023/09/20 06:01:25;;;;;;;4.65;3.13;;;14.90;1.00;;;;;;7391370;19;20082;-69
2023/09/20 06:03:56;;;;;;;8.52;3.88;;;14.90;1.00;;;;;;7392733;19;20011;-70
2023/09/20 06:06:27;;;;;;;5.78;3.53;;;15.00;1.00;;;;;;7390400;19;20092;-69
2023/09/20 06:08:56;;;;;;;7.03;3.25;;;15.00;1.00;;;;;;7392014;19;20007;-69
2023/09/20 06:11:29;;;;;;;7.05;3.55;;;15.20;1.00;;;;;;7391974;19;20022;-69
2023/09/20 06:13:59;;;;;;;6.70;3.40;;;15.30;1.00;;;;;;7392967;19;20038;-69
2023/09/20 06:16:29;;;;;;;5.25;3.30;;;15.50;1.00;;;;;;7392639;19;20051;-69
2023/09/20 06:18:59;;;;;;;7.07;3.20;;;15.60;1.00;;;;;;7389934;19;20010;-68
2023/09/20 06:21:38;;;;;;;5.50;2.92;;;15.60;1.00;;;;;;7391667;19;20133;-69
2023/09/20 06:24:11;;;;;;;5.93;3.40;;;15.60;1.00;;;;;;7393324;19;20483;-69
2023/09/20 06:26:44;;;;;;;5.65;3.20;;;15.70;1.00;;;;;;7393345;19;20086;-68
2023/09/20 06:29:15;;;;;;;6.82;3.63;;;15.70;1.00;;;;;;7391419;19;20350;-70
2023/09/20 06:31:45;;;;;;;9.50;3.60;;;15.70;1.00;;;;;;7392226;19;20723;-70
2023/09/20 06:34:18;;;;;;;7.20;3.35;;;15.80;1.00;;;;;;7392131;19;20015;-70
2023/09/20 06:36:48;;;;;;;7.25;3.45;;;15.80;1.00;;;;;;7392867;19;20534;-70
2023/09/20 06:39:19;;;;;;;5.25;3.35;;;15.90;1.00;;;;;;7390926;19;20360;-68
2023/09/20 06:41:51;;;;;;;8.20;2.95;;;15.90;1.00;;;;;;7391359;19;20038;-68
2023/09/20 06:44:21;;;;;;;6.28;2.55;;;15.90;1.00;;;;;;7392152;19;20756;-68
2023/09/20 06:46:51;;;;;;;5.35;2.45;;;15.90;1.00;;;;;;7393524;19;20013;-70
2023/09/20 06:49:21;;;;;;;5.60;2.80;;;15.90;1.00;;;;;;7388954;19;20023;-70
2023/09/20 06:51:52;;;;;;;6.25;2.78;;;16.00;1.00;;;;;;7391904;19;20086;-69
2023/09/20 06:54:22;;;;;;;5.95;2.67;;;16.20;1.00;;;;;;7391121;19;20006;-69
2023/09/20 06:56:55;;;;;;;6.82;2.83;;;16.20;1.00;;;;;;7394896;19;20018;-69
2023/09/20 06:59:26;;;;;;;4.40;2.67;;;16.40;1.00;;;;;;7396170;19;20019;-68
2023/09/20 07:01:56;;;;;;;6.82;2.50;;;16.50;1.00;;;;;;7396503;19;20093;-68
2023/09/20 07:04:26;;;;;;;9.00;2.67;;;16.40;1.00;;;;;;7392920;19;20126;-69
2023/09/20 07:06:57;;;;;;;5.45;2.70;;;16.60;1.00;;;;;;7390085;19;20010;-69
2023/09/20 07:09:27;;;;;;;4.82;2.60;;;16.50;1.00;;;;;;7390886;19;20014;-70
2023/09/20 07:12:01;;;;;;;9.20;2.30;;;16.70;1.00;;;;;;7390849;19;20078;-68
2023/09/20 07:14:32;;;;;;;5.57;2.40;;;16.90;1.00;;;;;;7391378;19;20027;-70
2023/09/20 07:17:03;;;;;;;4.00;2.20;;;17.10;1.00;;;;;;7390075;19;20015;-70
2023/09/20 07:19:36;;;;;;;4.00;2.30;;;17.40;1.00;;;;;;7390945;19;20106;-70
2023/09/20 07:22:07;;;;;;;3.80;2.22;;;17.60;1.00;;;;;;7390039;19;20398;-70
2023/09/20 07:24:37;;;;;;;4.13;1.88;;;17.90;1.00;;;;;;7390493;19;20007;-70
2023/09/20 07:27:09;;;;;;;3.17;1.95;;;18.10;1.00;;;;;;7389706;19;20010;-70
2023/09/20 07:29:41;;;;;;;5.90;2.10;;;18.20;1.00;;;;;;7391490;19;20010;-68
2023/09/20 07:32:12;;;;;;;2.97;2.05;;;18.30;1.00;;;;;;7391359;19;20010;-70
2023/09/20 07:34:43;;;;;;;4.53;2.28;;;18.40;1.00;;;;;;7390947;19;20368;-70
2023/09/20 07:37:17;;;;;;;7.18;2.80;;;18.30;1.00;;;;;;7389175;19;20463;-70
2023/09/20 07:39:50;;;;;;;3.53;2.05;;;18.40;1.00;;;;;;7391001;19;20466;-70
2023/09/20 07:42:23;;;;;;;2.80;1.67;;;18.50;1.00;;;;;;7388639;19;20007;-70
2023/09/20 07:44:53;;;;;;;4.40;2.10;;;18.60;1.00;;;;;;7390343;19;20017;-70
2023/09/20 07:47:23;;;;;;;4.47;2.30;;;18.60;1.00;;;;;;7389380;19;20022;-68
2023/09/20 07:49:53;;;;;;;7.00;1.92;;;18.50;1.00;;;;;;7389013;19;20482;-69
2023/09/20 07:52:23;;;;;;;7.13;2.58;;;18.60;1.00;;;;;;7388586;19;20074;-70
2023/09/20 07:54:53;;;;;;;3.17;2.13;;;18.50;1.00;;;;;;7388781;19;20077;-69
2023/09/20 07:57:27;;;;;;;5.13;2.50;;;18.60;1.00;;;;;;7386822;19;20026;-69
2023/09/20 07:59:59;;;;;;;7.07;3.20;;;18.70;1.00;;;;;;7387918;19;20018;-70
2023/09/20 08:02:29;;;;;;;4.80;2.75;;;18.90;1.00;;;;;;7388531;19;20109;-69
2023/09/20 08:04:59;;;;;;;3.67;2.15;;;19.00;1.00;;;;;;7389753;19;20177;-69
2023/09/20 08:07:29;;;;;;;5.55;2.58;;;18.90;1.00;;;;;;7386049;19;20022;-70
2023/09/20 08:09:59;;;;;;;3.88;2.25;;;18.90;1.00;;;;;;7388654;19;20010;-70
2023/09/20 08:12:31;;;;;;;4.20;2.00;;;19.00;1.00;;;;;;7388252;19;20092;-69
2023/09/20 08:15:02;;;;;;;3.55;2.38;;;19.20;1.00;;;;;;7388002;19;20031;-70
2023/09/20 08:20:21;;;;;;;5.57;2.80;;;19.40;1.00;;;;;;7387947;19;20014;-69
2023/09/20 09:01:15;;;;;;;5.65;2.13;;;21.50;1.00;;;;;;7386844;19;20015;-70
2023/09/20 09:03:45;;;;;;;7.80;2.10;;;21.70;1.00;;;;;;7388172;19;20036;-69
2023/09/20 09:06:15;;;;;;;2.88;1.60;;;21.90;1.00;;;;;;7385880;19;20454;-70
2023/09/20 09:08:45;;;;;;;3.30;1.67;;;22.10;1.00;;;;;;7387531;19;20073;-70
2023/09/20 09:11:17;;;;;;;4.60;1.90;;;22.00;1.00;;;;;;7387641;19;20014;-71
2023/09/20 09:13:48;;;;;;;4.00;1.70;;;22.00;1.00;;;;;;7395052;19;20047;-70
2023/09/20 09:16:21;;;;;;;4.45;2.00;;;21.90;1.00;;;;;;7394308;19;20017;-70
2023/09/20 09:18:51;;;;;;;3.08;1.80;;;22.20;1.00;;;;;;7394979;19;20349;-70
2023/09/20 09:21:22;;;;;;;5.28;1.92;;;21.50;1.00;;;;;;7393319;19;20018;-68
2023/09/20 09:23:52;;;;;;;3.58;1.60;;;21.30;1.00;;;;;;7394951;19;20019;-69
2023/09/20 09:26:23;;;;;;;3.25;1.77;;;21.50;1.00;;;;;;7394099;19;20044;-69
2023/09/20 09:28:53;;;;;;;4.60;1.90;;;21.80;1.00;;;;;;7393498;19;20039;-70
2023/09/20 09:31:26;;;;;;;4.18;1.85;;;22.30;1.00;;;;;;7393629;19;20011;-70
2023/09/20 09:33:57;;;;;;;2.95;1.48;;;22.50;1.00;;;;;;7394280;19;20006;-70
2023/09/20 09:36:27;;;;;;;3.17;1.85;;;22.60;1.00;;;;;;7394035;19;20023;-69
2023/09/20 09:39:10;;;;;;;4.22;2.13;;;22.90;1.00;;;;;;7392050;19;20021;-70
2023/09/20 09:42:00;;;;;;;2.80;1.60;;;23.10;1.00;;;;;;7393138;19;20030;-69
2023/09/20 09:44:30;;;;;;;3.10;1.85;;;22.60;1.00;;;;;;7393397;19;20044;-70
2023/09/20 09:47:04;;;;;;;3.03;1.70;;;23.00;1.00;;;;;;7392059;19;20038;-71
2023/09/20 09:49:34;;;;;;;2.75;1.70;;;22.90;1.00;;;;;;7392337;19;20380;-70
2023/09/20 09:52:05;;;;;;;4.82;1.90;;;23.10;1.00;;;;;;7392554;19;20009;-69
2023/09/20 09:54:37;;;;;;;2.47;1.67;;;23.10;1.00;;;;;;7390935;19;20031;-70
2023/09/20 09:57:07;;;;;;;7.03;1.90;;;23.30;1.00;;;;;;7391622;19;20018;-70
2023/09/20 09:59:39;;;;;;;3.65;1.50;;;23.30;1.00;;;;;;7392271;19;20039;-69
2023/09/20 10:02:17;;;;;;;2.35;1.55;;;23.30;1.00;;;;;;7392119;19;20025;-70
2023/09/20 10:04:52;;;;;;;5.07;1.60;;;23.30;1.00;;;;;;7393930;19;20014;-69
2023/09/20 10:07:24;;;;;;;2.85;1.60;;;23.40;1.00;;;;;;7391150;19;20086;-70
2023/09/20 10:09:56;;;;;;;3.78;2.13;;;23.10;1.00;;;;;;7392221;19;20010;-71
2023/09/20 10:12:28;;;;;;;5.85;1.75;;;23.20;1.00;;;;;;7391503;19;20018;-69
2023/09/20 10:14:59;;;;;;;2.63;1.80;;;23.00;1.00;;;;;;7392328;19;20014;-69
2023/09/20 10:17:32;;;;;;;1.77;1.48;;;23.20;1.00;;;;;;7390782;19;20023;-71
2023/09/20 10:20:06;;;;;;;2.25;1.60;;;23.20;1.00;;;;;;7393191;19;20018;-70
2023/09/20 10:22:40;;;;;;;;;;;23.20;1.00;;;;;;7392806;19;20015;-70
2023/09/20 10:25:32;;;;;;;1.90;1.70;;;23.30;1.00;;;;;;7392656;19;19922;-70
2023/09/20 10:28:06;;;;;;;4.32;1.70;;;23.10;1.00;;;;;;7390915;19;20010;-69
2023/09/20 10:30:36;;;;;;;2.63;1.60;;;23.00;1.00;;;;;;7392815;19;20011;-69
2023/09/20 10:33:10;;;;;;;2.33;1.65;;;23.20;1.00;;;;;;7391390;19;20381;-70
2023/09/20 10:35:41;;;;;;;2.45;1.75;;;23.50;1.00;;;;;;7391665;19;20478;-70
2023/09/20 10:38:25;;;;;;;3.35;1.42;;;23.50;1.00;;;;;;7389195;19;20011;-70
2023/09/20 10:41:00;;;;;;;3.88;1.80;;;23.50;1.00;;;;;;7390844;19;20029;-69
2023/09/20 10:43:54;;;;;;;3.25;1.70;;;23.70;1.00;;;;;;7389807;19;20009;-70
2023/09/20 10:46:25;;;;;;;3.45;1.70;;;23.60;1.00;;;;;;7394029;19;20520;-70
2023/09/20 10:48:58;;;;;;;4.70;1.63;;;23.50;1.00;;;;;;7393316;19;20014;-70
2023/09/20 10:51:54;;;;;;;3.92;1.58;;;23.30;1.00;;;;;;7390150;19;20127;-70
2023/09/20 10:54:29;;;;;;;3.22;1.95;;;23.50;1.00;;;;;;7391223;19;20501;-69
2023/09/20 10:57:10;;;;;;;2.45;1.83;;;23.70;1.00;;;;;;7390284;19;20010;-69
2023/09/20 10:59:45;;;;;;;2.65;1.50;;;23.80;1.00;;;;;;7389853;19;20018;-70
2023/09/20 11:02:18;;;;;;;4.80;2.15;;;23.80;1.00;;;;;;7390218;19;20006;-70
2023/09/20 11:04:57;;;;;;;3.58;1.90;;;24.20;1.00;;;;;;7391927;19;20010;-70
2023/09/20 11:07:28;;;;;;;3.13;1.50;;;24.20;1.00;;;;;;7387453;19;20014;-70
2023/09/20 11:09:58;;;;;;;2.85;2.03;;;24.20;1.00;;;;;;7389700;19;20078;-71
2023/09/20 11:12:28;;;;;;;2.38;1.70;;;24.10;1.00;;;;;;7385204;19;20006;-70
2023/09/20 11:14:58;;;;;;;2.35;1.50;;;24.30;1.00;;;;;;7390248;19;20011;-70
2023/09/20 11:17:28;;;;;;;2.83;1.70;;;24.50;1.00;;;;;;7386596;19;20010;-70
2023/09/20 11:20:00;;;;;;;3.38;1.92;;;24.50;1.00;;;;;;7389582;19;20031;-71
2023/09/20 11:22:32;;;;;;;3.58;1.92;;;24.50;1.00;;;;;;7386169;19;20013;-70
2023/09/20 11:25:03;;;;;;;2.53;1.52;;;24.10;1.00;;;;;;7390707;19;20007;-71
2023/09/20 11:27:34;;;;;;;1.90;1.42;;;24.20;1.00;;;;;;7388218;19;20018;-69
2023/09/20 11:30:11;;;;;;;3.60;1.73;;;24.00;1.00;;;;;;7390476;19;20243;-70
2023/09/20 11:32:41;;;;;;;3.55;1.80;;;24.20;1.00;;;;;;7388029;19;20014;-70
2023/09/20 11:35:34;;;;;;;5.90;1.85;;;24.40;1.00;;;;;;7387693;19;20018;-70
2023/09/20 11:38:05;;;;;;;2.80;1.92;;;24.40;1.00;;;;;;7388836;19;20439;-70
2023/09/20 11:40:37;;;;;;;2.95;1.90;;;24.50;1.00;;;;;;7389889;19;20764;-70
2023/09/20 11:43:09;;;;;;;3.67;1.85;;;24.60;1.00;;;;;;7387682;19;20010;-70
2023/09/20 11:45:41;;;;;;;3.22;2.10;;;24.70;1.00;;;;;;7384104;19;20028;-70
2023/09/20 11:48:29;;;;;;;3.00;2.10;;;24.70;1.00;;;;;;7385058;19;20101;-70
2023/09/20 11:51:04;;;;;;;2.58;1.70;;;24.10;1.00;;;;;;7385397;19;20054;-70
2023/09/20 11:53:35;;;;;;;3.92;2.05;;;24.50;1.00;;;;;;7382521;19;20014;-70
2023/09/20 11:56:06;;;;;;;2.85;1.58;;;24.50;1.00;;;;;;7382371;19;20014;-70
2023/09/20 11:58:44;;;;;;;5.78;2.25;;;24.70;1.00;;;;;;7378206;19;20010;-70
2023/09/20 12:01:14;;;;;;;4.32;1.83;;;24.70;1.00;;;;;;7382176;19;20034;-71
2023/09/20 12:03:44;;;;;;;4.10;2.00;;;24.60;1.00;;;;;;7382023;19;20014;-71
2023/09/20 12:06:17;;;;;;;4.55;2.00;;;24.90;1.00;;;;;;7382477;19;20010;-69
2023/09/20 12:08:50;;;;;;;3.90;1.90;;;24.70;1.00;;;;;;7381246;19;20474;-69
2023/09/20 12:11:22;;;;;;;4.15;2.00;;;24.50;1.00;;;;;;7381683;19;20019;-69
2023/09/20 12:13:56;;;;;;;4.45;2.10;;;24.70;1.00;;;;;;7383177;19;20021;-70
2023/09/20 12:16:28;;;;;;;2.97;2.15;;;24.80;1.00;;;;;;7380763;19;20090;-70
2023/09/20 12:18:58;;;;;;;4.25;2.05;;;24.90;1.00;;;;;;7368964;19;20493;-70
2023/09/20 12:21:32;;;;;;;2.13;1.90;;;25.00;1.00;;;;;;7356551;19;20358;-69
2023/09/20 12:24:02;;;;;;;4.25;2.20;;;24.80;1.00;;;;;;7362819;19;20018;-70
2023/09/20 12:26:33;;;;;;;3.63;2.15;;;24.80;1.00;;;;;;7361097;19;20014;-70
2023/09/20 12:29:03;;;;;;;2.58;1.83;;;25.00;1.00;;;;;;7361541;19;20074;-70
2023/09/20 12:31:33;;;;;;;2.63;1.90;;;25.00;1.00;;;;;;7359319;19;20074;-71
2023/09/20 12:34:03;;;;;;;4.88;2.30;;;25.20;1.00;;;;;;7365700;19;20078;-70
2023/09/20 12:36:36;;;;;;;2.97;1.80;;;25.10;1.00;;;;;;7364933;19;20022;-70
2023/09/20 12:39:10;;;;;;;3.63;1.90;;;25.30;1.00;;;;;;7366214;19;20035;-70
2023/09/20 12:41:42;;;;;;;3.13;2.15;;;24.90;1.00;;;;;;7362581;19;20045;-71
2023/09/20 12:44:12;;;;;;;2.78;2.17;;;24.80;1.00;;;;;;7368063;19;20018;-70
2023/09/20 12:46:47;;;;;;;3.13;1.98;;;24.90;1.00;;;;;;7356379;19;20020;-70
2023/09/20 12:49:17;;;;;;;2.65;1.92;;;25.20;1.00;;;;;;7378453;19;20025;-70
2023/09/20 12:51:50;;;;;;;2.92;1.52;;;25.40;1.00;;;;;;7376280;19;20036;-69
2023/09/20 12:54:20;;;;;;;2.45;1.50;;;25.30;1.00;;;;;;7373744;19;20078;-70
2023/09/20 12:56:50;;;;;;;2.85;2.08;;;25.30;1.00;;;;;;7370729;19;20070;-70
2023/09/20 12:59:26;;;;;;;2.80;1.95;;;25.50;1.00;;;;;;7373373;19;20007;-69
2023/09/20 13:01:59;;;;;;;4.10;2.00;;;25.30;1.00;;;;;;7370932;19;20039;-71
2023/09/20 13:04:32;;;;;;;3.33;1.50;;;25.60;1.00;;;;;;7373336;19;20014;-70
2023/09/20 13:07:05;;;;;;;2.03;1.70;;;25.40;1.00;;;;;;7373813;19;20018;-69
2023/09/20 13:09:36;;;;;;;4.22;1.70;;;25.40;1.00;;;;;;7370849;19;20509;-70
2023/09/20 13:12:08;;;;;;;2.22;1.40;;;25.50;1.00;;;;;;7368590;19;20010;-68
2023/09/20 13:14:38;;;;;;;2.17;1.58;;;25.50;1.00;;;;;;7374244;19;20471;-71
2023/09/20 13:17:09;;;;;;;1.90;1.30;;;25.40;1.00;;;;;;7386887;19;20014;-70
2023/09/20 13:19:39;;;;;;;2.70;1.73;;;25.50;1.00;;;;;;7385501;19;20043;-70
2023/09/20 13:22:12;;;;;;;3.72;1.33;;;25.70;1.00;;;;;;7386568;19;20030;-71
2023/09/20 13:24:43;;;;;;;4.03;1.50;;;25.60;1.00;;;;;;7387688;19;20577;-70
2023/09/20 13:27:14;;;;;;;3.05;1.50;;;25.70;1.00;;;;;;7385114;19;20641;-70
2023/09/20 13:29:47;;;;;;;2.13;1.25;;;25.70;1.00;;;;;;7385562;19;20019;-69
2023/09/20 13:32:18;;;;;;;1.67;1.20;;;25.80;1.00;;;;;;7389509;19;20018;-70
2023/09/20 13:34:48;;;;;;;1.80;1.20;;;25.60;1.00;;;;;;7388543;19;20039;-70
2023/09/20 13:37:21;;;;;;;6.82;1.50;;;25.50;1.00;;;;;;7387259;19;20078;-69
2023/09/20 13:39:52;;;;;;;2.00;1.10;;;25.60;1.00;;;;;;7372018;19;20776;-70
2023/09/20 13:42:21;;;;;;;1.88;1.27;;;25.60;1.00;;;;;;7372620;19;20045;-71
2023/09/20 13:44:51;;;;;;;2.08;1.38;;;25.60;1.00;;;;;;7373524;19;20014;-69
2023/09/20 13:47:21;;;;;;;5.68;2.97;;;25.50;1.00;;;;;;7372068;19;20022;-70
2023/09/20 13:49:56;;;;;;;;;;;25.70;1.00;;;;;;7371576;19;20039;-70
2023/09/20 13:52:29;;;;;;;2.20;1.20;;;25.80;1.00;;;;;;7372584;19;19943;-69
2023/09/20 13:54:59;;;;;;;3.50;1.67;;;25.90;1.00;;;;;;7373721;19;20463;-70
2023/09/20 13:57:31;;;;;;;4.47;1.40;;;25.70;1.00;;;;;;7366404;19;20681;-70
2023/09/20 14:00:12;;;;;;;2.67;1.30;;;26.00;1.00;;;;;;7362761;19;20052;-69
2023/09/20 14:02:43;;;;;;;1.70;1.17;;;25.80;1.00;;;;;;7368341;19;20486;-70